Detall de PIREP

Printer-friendly versionPDF version

[2016/08/14 08:18:00]
Flight IATA:CT1004
Pilot Number:012
Company ICAO:CAT
Aircraft Type:B763/F
PAX:257
Departing Airport: LUKK
Destination Airport: LIEA
Alternate Airport:LIEO
Online: VATSIM
Route:POGAV Z650 BCU Z924 DIRER UZ924 VAL UY88 BATRU UZ924 VEBAR UY88 KEB UZ924 GILUK UY88 VRANA UZ924 MOPUV UY106 OKUNO UL5 MINKA
Flight Level:F380
No Slew and time accel
No pause
Crash detect
Detect pilot in Cockpit between each 30 and 45 minutes
08:18 Zero fuel Weight: 253902 Lbs, Fuel Weight: 36192 Lbs
08:18 VATSIM:LUKK 140800Z 32010KT 280V340 CAVOK 22/09 Q1021 R26/CLRD// NOSIG
08:18 VATSIM:LIEA 140750Z 07004KT 020V140 CAVOK 28/07 Q1022
08:18 SUMMER CHARTER
08:19 Parking Brakes off
08:23 Take-off
08:23 Take off Weight: 288921 Lbs
08:23 Wind: 305º @ 010 Knots Heading: 270º
08:23 POS N46º 55´ 42´´ E028º 56´ 06´´
08:23 Gear Up: 176 Knots
08:23 Flaps:2 at 176 Knots
08:23 Flaps:1 at 202 Knots
08:23 Flaps:0 at 205 Knots
08:35 TOC
08:35 Fuel Weight: 29539 Lb
08:38 Wind:272º@037 Knots Heading: 250º Ground Speed: 437 Knots Altitude 38293 ft
08:53 Wind:273º@033 Knots Heading: 249º Ground Speed: 444 Knots Altitude 38349 ft
09:08 Wind:279º@019 Knots Heading: 247º Ground Speed: 457 Knots Altitude 38349 ft
09:23 Wind:283º@020 Knots Heading: 250º Ground Speed: 455 Knots Altitude 38333 ft
09:38 Wind:280º@018 Knots Heading: 243º Ground Speed: 462 Knots Altitude 38280 ft
09:53 Wind:298º@020 Knots Heading: 242º Ground Speed: 465 Knots Altitude 38293 ft
10:08 Wind:315º@025 Knots Heading: 243º Ground Speed: 471 Knots Altitude 38264 ft
10:19 TOD
10:19 Fuel Weight: 13950 Lb
10:23 Wind:330º@031 Knots Heading: 252º Ground Speed: 446 Knots Altitude 25830 ft
10:35 Flaps:1 at 249 Knots
10:35 Flaps:2 at 203 Knots
10:36 Flaps:3 at 179 Knots
10:36 Gear Down: 175 Knots
10:38 Wind:188º@011 Knots Heading: 138º Ground Speed: 149 Knots Altitude 1952 ft
10:38 Flaps:4 at 148 Knots
10:39 Flaps:5 at 134 Knots
10:39 Flaps:6 at 136 Knots
10:41 TouchDown:Rate -260 ft/min Speed: 122 Knots
10:41 VATSIM:LIEA 141020Z 19011KT CAVOK 27/14 Q1022
10:41 Land
10:41 Wind:188º@011 Knots
10:41 Heading: 207º
10:41 Flight Duration: 02:18
10:41 Landing Weight: 265656 Lbs
10:41 POS N40º 37´ 54´´ E008º 17´ 26´´
10:43 Parking brakes on
10:43 Block to Block Duration: 02:24
10:43 Final Fuel: 11439 Lbls
10:43 Spent Fuel: 24753 Lbls
10:43 Flight Length: 984 NM
10:43 TOD Land Length: 115 NM

Exportar CSV

Powered by Drupal - Modified by Danger4k